createdAt,value
2019-04-12T00:00:36.816Z,1021.03
2019-04-12T00:01:17.378Z,1021.02
2019-04-12T00:01:57.958Z,1021.07
2019-04-12T00:02:38.535Z,1021.01
2019-04-12T00:03:19.126Z,1021.05
2019-04-12T00:04:01.381Z,1021.02
2019-04-12T00:04:40.316Z,1020.98
2019-04-12T00:05:20.805Z,1021.02
2019-04-12T00:06:02.556Z,1021
2019-04-12T00:06:41.915Z,1021.02
2019-04-12T00:07:22.488Z,1021.04
2019-04-12T00:08:03.139Z,1021.03
2019-04-12T00:08:43.737Z,1020.99
2019-04-12T00:09:24.284Z,1021.02
2019-04-12T00:10:04.839Z,1020.97
2019-04-12T00:10:45.391Z,1021.04
2019-04-12T00:11:25.972Z,1021.03
2019-04-12T00:12:06.529Z,1021.02
2019-04-12T00:12:47.142Z,1020.97
2019-04-12T00:13:27.699Z,1021.09
2019-04-12T00:14:08.286Z,1021.07
2019-04-12T00:14:48.836Z,1021.02
2019-04-12T00:15:29.410Z,1021
2019-04-12T00:16:11.870Z,1020.98
2019-04-12T00:16:50.547Z,1021.03
2019-04-12T00:17:31.105Z,1020.99
2019-04-12T00:18:11.964Z,1021
2019-04-12T00:18:52.297Z,1020.98
2019-04-12T00:19:32.818Z,1020.99
2019-04-12T00:20:13.834Z,1021.01
2019-04-12T00:20:53.968Z,1021.01
2019-04-12T00:21:34.529Z,1021.01
2019-04-12T00:22:16.000Z,1021.01
2019-04-12T00:22:55.646Z,1020.99
2019-04-12T00:23:36.226Z,1020.97
2019-04-12T00:24:17.355Z,1020.99
2019-04-12T00:24:57.378Z,1021.02
2019-04-12T00:25:37.924Z,1021.02
2019-04-12T00:26:19.091Z,1021.02
2019-04-12T00:26:59.027Z,1020.98
2019-04-12T00:27:39.585Z,1021.05
2019-04-12T00:28:20.319Z,1021
2019-04-12T00:29:00.728Z,1020.98
2019-04-12T00:29:41.300Z,1021.01
2019-04-12T00:30:22.058Z,1021
2019-04-12T00:31:02.412Z,1020.97
2019-04-12T00:31:43.003Z,1021
2019-04-12T00:32:23.566Z,1020.97
2019-04-12T00:33:04.145Z,1020.92
2019-04-12T00:33:44.699Z,1020.94
2019-04-12T00:34:25.272Z,1020.96
2019-04-12T00:35:05.858Z,1020.99
2019-04-12T00:35:46.440Z,1020.94
2019-04-12T00:36:27.029Z,1020.95
2019-04-12T00:37:07.585Z,1020.97
2019-04-12T00:37:48.176Z,1020.98
2019-04-12T00:38:28.732Z,1020.97
2019-04-12T00:39:09.287Z,1021
2019-04-12T00:39:49.869Z,1021.02
2019-04-12T00:40:31.460Z,1020.98
2019-04-12T00:41:11.000Z,1021.04
2019-04-12T00:41:51.587Z,1021.03
2019-04-12T00:42:34.691Z,1021.03
2019-04-12T00:43:15.255Z,1021.02
2019-04-12T00:43:55.832Z,1021.06
2019-04-12T00:44:36.388Z,1021.09
2019-04-12T00:45:16.987Z,1021.11
2019-04-12T00:45:57.531Z,1021.06
2019-04-12T00:46:38.848Z,1021.04
2019-04-12T00:47:18.661Z,1021.08
2019-04-12T00:47:59.243Z,1021.02
2019-04-12T00:48:39.816Z,1021.05
2019-04-12T00:49:20.346Z,1021.09
2019-04-12T00:50:00.895Z,1021.09
2019-04-12T00:50:42.247Z,1021.11
2019-04-12T00:51:22.075Z,1021.05
2019-04-12T00:52:02.683Z,1021.07
2019-04-12T00:52:43.723Z,1021.1
2019-04-12T00:53:23.796Z,1021.08
2019-04-12T00:54:04.344Z,1021.05
2019-04-12T00:54:46.407Z,1021.05
2019-04-12T00:55:25.642Z,1021.04
2019-04-12T00:56:06.198Z,1021.05
2019-04-12T00:56:47.590Z,1021.07
2019-04-12T00:57:27.336Z,1021.06
2019-04-12T00:58:07.899Z,1021.06
2019-04-12T00:58:48.463Z,1021.03
2019-04-12T00:59:29.042Z,1021.03
2019-04-12T01:00:09.858Z,1021.08
2019-04-12T01:00:50.451Z,1021.07
2019-04-12T01:01:31.022Z,1021.09
2019-04-12T01:02:11.561Z,1021.04
2019-04-12T01:02:52.163Z,1021.1
2019-04-12T01:03:32.666Z,1021.07
2019-04-12T01:04:15.762Z,1021.11
2019-04-12T01:04:53.800Z,1021.02
2019-04-12T01:05:34.350Z,1021.07
2019-04-12T01:06:15.779Z,1021.11
2019-04-12T01:06:55.468Z,1021.1
2019-04-12T01:07:36.031Z,1021.1
2019-04-12T01:08:20.697Z,1021.06
2019-04-12T01:08:57.170Z,1021.06
2019-04-12T01:09:37.776Z,1021.03
2019-04-12T01:10:18.329Z,1021.05
2019-04-12T01:10:58.945Z,1021.03
2019-04-12T01:11:39.450Z,1021.03
2019-04-12T01:12:19.999Z,1021.04
2019-04-12T01:13:00.554Z,1021.05
2019-04-12T01:13:41.128Z,1021.05
2019-04-12T01:14:21.680Z,1021.05
2019-04-12T01:15:02.358Z,1021.01
2019-04-12T01:15:42.929Z,1021.03
2019-04-12T01:16:23.489Z,1021
2019-04-12T01:17:04.033Z,1021.02
2019-04-12T01:17:44.582Z,1021.03
2019-04-12T01:18:25.142Z,1021.01
2019-04-12T01:19:05.711Z,1021.03
2019-04-12T01:19:46.270Z,1021.01
2019-04-12T01:20:26.852Z,1021.02
2019-04-12T01:21:07.662Z,1021.01
2019-04-12T01:21:48.018Z,1021.03
2019-04-12T01:22:28.579Z,1021.01
2019-04-12T01:23:10.223Z,1021
2019-04-12T01:23:49.704Z,1021.01
2019-04-12T01:24:30.269Z,1021
2019-04-12T01:25:13.225Z,1020.99
2019-04-12T01:25:51.521Z,1021.01
2019-04-12T01:26:32.080Z,1021.01
2019-04-12T01:27:16.502Z,1020.94
2019-04-12T01:27:53.271Z,1021.02
2019-04-12T01:28:33.814Z,1020.94
2019-04-12T01:29:17.706Z,1020.99
2019-04-12T01:29:54.944Z,1020.96
2019-04-12T01:30:35.501Z,1020.98
2019-04-12T01:31:16.087Z,1021.01
2019-04-12T01:31:56.648Z,1020.97
2019-04-12T01:32:37.209Z,1021.02
2019-04-12T01:33:17.767Z,1021.02
2019-04-12T01:33:58.315Z,1021.02
2019-04-12T01:34:38.886Z,1021.06
2019-04-12T01:35:19.438Z,1021.02
2019-04-12T01:36:00.001Z,1021.01
2019-04-12T01:36:40.573Z,1020.97
2019-04-12T01:37:21.139Z,1021
2019-04-12T01:38:01.685Z,1021.03
2019-04-12T01:38:42.262Z,1021.04
2019-04-12T01:39:22.820Z,1021.02
2019-04-12T01:40:03.398Z,1020.99
2019-04-12T01:40:43.944Z,1020.98
2019-04-12T01:41:24.528Z,1021
2019-04-12T01:42:05.068Z,1021.02
2019-04-12T01:42:45.655Z,1020.99
2019-04-12T01:43:26.199Z,1020.98
2019-04-12T01:44:06.777Z,1020.99
2019-04-12T01:44:47.327Z,1020.99
2019-04-12T01:45:27.874Z,1020.98
2019-04-12T01:46:08.474Z,1021.02
2019-04-12T01:46:49.039Z,1021
2019-04-12T01:47:29.584Z,1020.99
2019-04-12T01:48:10.126Z,1021.06
2019-04-12T01:48:50.688Z,1021.01
2019-04-12T01:49:31.231Z,1020.96
2019-04-12T01:50:11.849Z,1020.96
2019-04-12T01:50:52.413Z,1020.93
2019-04-12T01:51:32.975Z,1020.96
2019-04-12T01:52:13.532Z,1020.95
2019-04-12T01:52:54.093Z,1020.91
2019-04-12T01:53:34.685Z,1020.93
2019-04-12T01:54:15.202Z,1020.92
2019-04-12T01:54:55.762Z,1020.98
2019-04-12T01:55:36.327Z,1020.94
2019-04-12T01:56:16.896Z,1020.93
2019-04-12T01:56:57.458Z,1020.94
2019-04-12T01:57:38.010Z,1020.93
2019-04-12T01:58:18.580Z,1020.94
2019-04-12T01:58:59.140Z,1020.92
2019-04-12T01:59:39.709Z,1020.88
2019-04-12T02:00:20.371Z,1020.91
2019-04-12T02:01:00.921Z,1020.94
2019-04-12T02:01:41.475Z,1020.91
2019-04-12T02:02:22.037Z,1020.94
2019-04-12T02:03:02.741Z,1020.92
2019-04-12T02:03:43.297Z,1020.9
2019-04-12T02:04:23.920Z,1020.9
2019-04-12T02:05:04.493Z,1020.88
2019-04-12T02:05:45.190Z,1020.92
2019-04-12T02:06:25.743Z,1020.93
2019-04-12T02:07:06.360Z,1020.9
2019-04-12T02:07:46.951Z,1020.91
2019-04-12T02:08:27.509Z,1020.91
2019-04-12T02:09:08.073Z,1020.94
2019-04-12T02:09:48.632Z,1020.93
2019-04-12T02:10:29.235Z,1020.92
2019-04-12T02:11:09.888Z,1020.92
2019-04-12T02:11:50.446Z,1020.97
2019-04-12T02:12:31.049Z,1020.95
2019-04-12T02:13:11.635Z,1020.96
2019-04-12T02:13:52.173Z,1020.95
2019-04-12T02:14:32.716Z,1021.02
2019-04-12T02:15:13.312Z,1021
2019-04-12T02:15:53.874Z,1020.97
2019-04-12T02:16:34.458Z,1020.94
2019-04-12T02:17:15.041Z,1020.94
2019-04-12T02:17:55.599Z,1020.93
2019-04-12T02:18:36.142Z,1020.94
2019-04-12T02:19:16.725Z,1020.93
2019-04-12T02:19:57.300Z,1020.93
2019-04-12T02:20:37.857Z,1020.91
2019-04-12T02:21:18.418Z,1020.94
2019-04-12T02:21:59.002Z,1020.92
2019-04-12T02:22:39.577Z,1020.92
2019-04-12T02:23:20.109Z,1020.94
2019-04-12T02:24:00.668Z,1020.97
2019-04-12T02:24:41.238Z,1020.93
2019-04-12T02:25:25.021Z,1020.96
2019-04-12T02:26:02.402Z,1020.94
2019-04-12T02:26:42.959Z,1020.96
2019-04-12T02:27:23.531Z,1020.98
2019-04-12T02:28:04.071Z,1020.95
2019-04-12T02:28:44.672Z,1020.98
2019-04-12T02:29:25.234Z,1020.98
2019-04-12T02:30:05.810Z,1020.94
2019-04-12T02:30:46.356Z,1020.94
2019-04-12T02:31:26.924Z,1020.93
2019-04-12T02:32:07.484Z,1020.97
2019-04-12T02:32:48.051Z,1020.87
2019-04-12T02:33:28.629Z,1020.91
2019-04-12T02:34:09.217Z,1020.92
2019-04-12T02:34:49.774Z,1020.92
2019-04-12T02:35:30.473Z,1020.91
2019-04-12T02:36:11.042Z,1020.89
2019-04-12T02:36:51.605Z,1020.84
2019-04-12T02:37:32.187Z,1020.87
2019-04-12T02:38:12.753Z,1020.87
2019-04-12T02:38:53.448Z,1020.86
2019-04-12T02:39:33.903Z,1020.87
2019-04-12T02:40:14.453Z,1020.86
2019-04-12T02:40:55.100Z,1020.88
2019-04-12T02:41:35.653Z,1020.83
2019-04-12T02:42:16.234Z,1020.84
2019-04-12T02:42:56.803Z,1020.83
2019-04-12T02:43:37.354Z,1020.88
2019-04-12T02:44:17.934Z,1020.86
2019-04-12T02:44:58.485Z,1020.86
2019-04-12T02:45:39.074Z,1020.85
2019-04-12T02:46:19.671Z,1020.84
2019-04-12T02:47:00.217Z,1020.83
2019-04-12T02:47:40.763Z,1020.83
2019-04-12T02:48:21.413Z,1020.83
2019-04-12T02:49:01.961Z,1020.84
2019-04-12T02:49:42.535Z,1020.85
2019-04-12T02:50:23.114Z,1020.84
2019-04-12T02:51:03.679Z,1020.86
2019-04-12T02:51:44.307Z,1020.86
2019-04-12T02:52:24.797Z,1020.86
2019-04-12T02:53:05.346Z,1020.88
2019-04-12T02:53:45.911Z,1020.87
2019-04-12T02:54:26.496Z,1020.85
2019-04-12T02:55:07.019Z,1020.87
2019-04-12T02:55:47.569Z,1020.86
2019-04-12T02:56:28.130Z,1020.9
2019-04-12T02:57:08.701Z,1020.86
2019-04-12T02:57:49.254Z,1020.84
2019-04-12T02:58:29.814Z,1020.86
2019-04-12T02:59:10.389Z,1020.88
2019-04-12T02:59:50.966Z,1020.87
2019-04-12T03:00:31.574Z,1020.86
2019-04-12T03:01:12.214Z,1020.89
2019-04-12T03:01:52.791Z,1020.88
2019-04-12T03:02:33.369Z,1020.89
2019-04-12T03:03:13.915Z,1020.9
2019-04-12T03:03:54.487Z,1020.87
2019-04-12T03:04:35.138Z,1020.9
2019-04-12T03:05:15.722Z,1020.9
2019-04-12T03:05:56.277Z,1020.87
2019-04-12T03:06:36.891Z,1020.84
2019-04-12T03:07:17.432Z,1020.89
2019-04-12T03:07:57.999Z,1020.85
2019-04-12T03:08:38.563Z,1020.89
2019-04-12T03:09:19.134Z,1020.87
2019-04-12T03:09:59.690Z,1020.88
2019-04-12T03:10:40.242Z,1020.86
2019-04-12T03:11:20.793Z,1020.89
2019-04-12T03:12:01.426Z,1020.91
2019-04-12T03:12:41.920Z,1020.88
2019-04-12T03:13:22.487Z,1020.9
2019-04-12T03:14:03.047Z,1020.88
2019-04-12T03:14:43.605Z,1020.86
2019-04-12T03:15:24.210Z,1020.88
2019-04-12T03:16:04.809Z,1020.86
2019-04-12T03:16:45.401Z,1020.88
2019-04-12T03:17:25.954Z,1020.89
2019-04-12T03:18:06.592Z,1020.89
2019-04-12T03:18:47.154Z,1020.93
2019-04-12T03:19:27.707Z,1020.88
2019-04-12T03:20:08.285Z,1020.88
2019-04-12T03:20:48.846Z,1020.89
2019-04-12T03:21:29.418Z,1020.93
2019-04-12T03:22:09.969Z,1020.92
2019-04-12T03:22:50.518Z,1020.96
2019-04-12T03:23:31.075Z,1020.89
2019-04-12T03:24:11.635Z,1020.93
2019-04-12T03:24:52.185Z,1020.9
2019-04-12T03:25:32.730Z,1020.91
2019-04-12T03:26:13.284Z,1020.93
2019-04-12T03:26:53.854Z,1020.89
2019-04-12T03:27:34.450Z,1020.94
2019-04-12T03:28:15.027Z,1020.9
2019-04-12T03:28:55.584Z,1020.89
2019-04-12T03:29:36.153Z,1020.95
2019-04-12T03:30:16.730Z,1020.92
2019-04-12T03:30:57.270Z,1020.92
2019-04-12T03:31:37.898Z,1020.94
2019-04-12T03:32:18.478Z,1020.91
2019-04-12T03:32:59.002Z,1020.93
2019-04-12T03:33:39.572Z,1020.91
2019-04-12T03:34:20.139Z,1020.91
2019-04-12T03:35:00.677Z,1020.89
2019-04-12T03:35:43.644Z,1020.91
2019-04-12T03:36:21.788Z,1020.88
2019-04-12T03:37:02.355Z,1020.89
2019-04-12T03:37:42.896Z,1020.9
2019-04-12T03:38:23.475Z,1020.92
2019-04-12T03:39:04.084Z,1020.88
2019-04-12T03:39:44.674Z,1020.92
2019-04-12T03:40:25.293Z,1020.92
2019-04-12T03:41:05.868Z,1020.93
2019-04-12T03:41:46.417Z,1020.93
2019-04-12T03:42:27.034Z,1020.95
2019-04-12T03:43:07.629Z,1020.92
2019-04-12T03:43:48.217Z,1020.89
2019-04-12T03:44:28.805Z,1020.92
2019-04-12T03:45:09.383Z,1020.97
2019-04-12T03:45:49.942Z,1020.91
2019-04-12T03:46:30.499Z,1020.91
2019-04-12T03:47:11.058Z,1020.86
2019-04-12T03:47:51.620Z,1020.86
2019-04-12T03:48:32.183Z,1020.92
2019-04-12T03:49:12.732Z,1020.9
2019-04-12T03:49:53.296Z,1020.91
2019-04-12T03:50:33.869Z,1020.95
2019-04-12T03:51:14.416Z,1020.92
2019-04-12T03:51:54.963Z,1020.95
2019-04-12T03:52:35.540Z,1020.94
2019-04-12T03:53:16.089Z,1020.95
2019-04-12T03:53:56.670Z,1020.93
2019-04-12T03:54:37.230Z,1020.96
2019-04-12T03:55:17.831Z,1020.92
2019-04-12T03:56:07.690Z,1020.99
2019-04-12T03:56:38.983Z,1020.91
2019-04-12T03:57:19.502Z,1020.91
2019-04-12T03:58:00.078Z,1020.93
2019-04-12T03:58:40.797Z,1020.91
2019-04-12T03:59:21.345Z,1020.93
2019-04-12T04:00:04.719Z,1020.91
2019-04-12T04:00:45.319Z,1020.93
2019-04-12T04:01:25.857Z,1020.95
2019-04-12T04:02:06.421Z,1020.9
2019-04-12T04:02:47.069Z,1020.94
2019-04-12T04:03:27.608Z,1020.92
2019-04-12T04:04:08.157Z,1020.97
2019-04-12T04:04:48.744Z,1020.92
2019-04-12T04:05:29.400Z,1020.94
2019-04-12T04:06:09.943Z,1020.93
2019-04-12T04:06:50.514Z,1020.96
2019-04-12T04:07:31.066Z,1020.95
2019-04-12T04:08:11.660Z,1020.95
2019-04-12T04:08:52.237Z,1020.96
2019-04-12T04:09:32.791Z,1020.97
2019-04-12T04:10:13.422Z,1020.91
2019-04-12T04:10:53.975Z,1020.98
2019-04-12T04:11:34.548Z,1020.93
2019-04-12T04:12:15.171Z,1020.99
2019-04-12T04:12:55.775Z,1020.97
2019-04-12T04:13:36.340Z,1020.98
2019-04-12T04:14:16.922Z,1020.99
2019-04-12T04:14:57.500Z,1020.98
2019-04-12T04:15:38.042Z,1020.98
2019-04-12T04:16:18.602Z,1020.98
2019-04-12T04:16:59.179Z,1021.03
2019-04-12T04:17:39.729Z,1020.99
2019-04-12T04:18:20.300Z,1020.98
2019-04-12T04:19:00.866Z,1020.97
2019-04-12T04:19:41.434Z,1020.99
2019-04-12T04:20:22.021Z,1020.98
2019-04-12T04:21:02.590Z,1020.99
2019-04-12T04:21:43.213Z,1021.01
2019-04-12T04:22:23.787Z,1020.99
2019-04-12T04:23:04.368Z,1020.97
2019-04-12T04:23:44.969Z,1021
2019-04-12T04:24:25.589Z,1021.02
2019-04-12T04:25:06.188Z,1020.95
2019-04-12T04:25:46.748Z,1021.04
2019-04-12T04:26:27.332Z,1020.97
2019-04-12T04:27:07.892Z,1021
2019-04-12T04:27:48.443Z,1021.03
2019-04-12T04:28:29.020Z,1021.02
2019-04-12T04:29:09.720Z,1021.01
2019-04-12T04:29:50.358Z,1021
2019-04-12T04:30:30.892Z,1021.02
2019-04-12T04:31:11.504Z,1020.98
2019-04-12T04:31:54.421Z,1021
2019-04-12T04:32:32.632Z,1021.01
2019-04-12T04:33:13.179Z,1021
2019-04-12T04:33:53.728Z,1021.06
2019-04-12T04:34:34.296Z,1021
2019-04-12T04:35:14.944Z,1021.07
2019-04-12T04:35:55.458Z,1021.03
2019-04-12T04:36:36.022Z,1021.06
2019-04-12T04:37:16.702Z,1021.03
2019-04-12T04:37:57.280Z,1021.04
2019-04-12T04:38:37.889Z,1021.07
2019-04-12T04:39:18.466Z,1021.04
2019-04-12T04:39:59.071Z,1021
2019-04-12T04:40:39.633Z,1021.03
2019-04-12T04:41:20.207Z,1021.03
2019-04-12T04:42:00.767Z,1021.05
2019-04-12T04:42:41.341Z,1021.05
2019-04-12T04:43:21.958Z,1021.07
2019-04-12T04:44:02.527Z,1021.05
2019-04-12T04:44:43.087Z,1021.05
2019-04-12T04:45:23.650Z,1021.06
2019-04-12T04:46:04.223Z,1021.02
2019-04-12T04:46:44.770Z,1021.08
2019-04-12T04:47:25.323Z,1021.07
2019-04-12T04:48:05.888Z,1021.01
2019-04-12T04:48:46.451Z,1021.04
2019-04-12T04:49:27.017Z,1021.07
2019-04-12T04:50:07.617Z,1021.04
2019-04-12T04:50:48.171Z,1021.05
2019-04-12T04:51:28.730Z,1021.09
2019-04-12T04:52:09.322Z,1021.08
2019-04-12T04:52:50.845Z,1021.03
2019-04-12T04:53:31.410Z,1021.08
2019-04-12T04:54:11.980Z,1021.02
2019-04-12T04:54:52.556Z,1021.07
2019-04-12T04:55:33.183Z,1021.07
2019-04-12T04:56:13.850Z,1021.08
2019-04-12T04:56:54.376Z,1021.09
2019-04-12T04:57:34.974Z,1021.05
2019-04-12T04:58:15.532Z,1021.04
2019-04-12T04:58:56.101Z,1021.07
2019-04-12T04:59:36.731Z,1021.07
2019-04-12T05:00:17.627Z,1021.03
2019-04-12T05:00:58.191Z,1021.09
2019-04-12T05:01:38.783Z,1021.1
2019-04-12T05:02:19.389Z,1021.05
2019-04-12T05:02:59.938Z,1021.07
2019-04-12T05:03:40.501Z,1021.06
2019-04-12T05:04:21.084Z,1021.11
2019-04-12T05:05:01.684Z,1021.07
2019-04-12T05:05:42.251Z,1021.08
2019-04-12T05:06:22.926Z,1021.06
2019-04-12T05:07:03.535Z,1021.11
2019-04-12T05:07:44.144Z,1021.06
2019-04-12T05:08:24.768Z,1021.1
2019-04-12T05:09:05.341Z,1021.03
2019-04-12T05:09:45.917Z,1021.07
2019-04-12T05:10:26.486Z,1021.01
2019-04-12T05:11:07.332Z,1021.07
2019-04-12T05:11:47.894Z,1021.05
2019-04-12T05:12:28.474Z,1021.08
2019-04-12T05:13:09.021Z,1021.11
2019-04-12T05:13:49.585Z,1021.05
2019-04-12T05:14:30.159Z,1021.05
2019-04-12T05:15:10.760Z,1021.07
2019-04-12T05:15:51.335Z,1021.06
2019-04-12T05:16:31.899Z,1021.04
2019-04-12T05:17:12.550Z,1021.07
2019-04-12T05:17:53.113Z,1021.1
2019-04-12T05:18:33.770Z,1021.09
2019-04-12T05:19:14.339Z,1021.11
2019-04-12T05:19:54.893Z,1021.15
2019-04-12T05:20:35.516Z,1021.11
2019-04-12T05:21:16.140Z,1021.11
2019-04-12T05:21:56.703Z,1021.14
2019-04-12T05:22:37.278Z,1021.14
2019-04-12T05:23:17.838Z,1021.12
2019-04-12T05:23:58.406Z,1021.11
2019-04-12T05:24:38.990Z,1021.18
2019-04-12T05:25:19.538Z,1021.2
2019-04-12T05:26:00.119Z,1021.2
2019-04-12T05:26:45.581Z,1021.18
2019-04-12T05:27:21.276Z,1021.17
2019-04-12T05:28:01.827Z,1021.18
2019-04-12T05:28:42.386Z,1021.26
2019-04-12T05:29:23.009Z,1021.24
2019-04-12T05:30:03.646Z,1021.24
2019-04-12T05:30:44.216Z,1021.26
2019-04-12T05:31:24.970Z,1021.26
2019-04-12T05:32:05.530Z,1021.29
2019-04-12T05:32:46.196Z,1021.28
2019-04-12T05:33:26.785Z,1021.28
2019-04-12T05:34:07.398Z,1021.22
2019-04-12T05:34:47.949Z,1021.25
2019-04-12T05:35:28.514Z,1021.26
2019-04-12T05:36:09.096Z,1021.26
2019-04-12T05:36:49.657Z,1021.25
2019-04-12T05:37:30.202Z,1021.25
2019-04-12T05:38:10.782Z,1021.25
2019-04-12T05:38:51.357Z,1021.22
2019-04-12T05:39:31.917Z,1021.26
2019-04-12T05:40:12.493Z,1021.25
2019-04-12T05:40:54.845Z,1021.23
2019-04-12T05:41:33.616Z,1021.25
2019-04-12T05:42:14.176Z,1021.22
2019-04-12T05:42:54.735Z,1021.23
2019-04-12T05:43:35.334Z,1021.26
2019-04-12T05:44:15.901Z,1021.25
2019-04-12T05:44:56.463Z,1021.25
2019-04-12T05:45:37.090Z,1021.24
2019-04-12T05:46:17.684Z,1021.24
2019-04-12T05:46:58.247Z,1021.26
2019-04-12T05:47:38.891Z,1021.21
2019-04-12T05:48:19.816Z,1021.27
2019-04-12T05:49:00.728Z,1021.22
2019-04-12T05:49:41.723Z,1021.21
2019-04-12T05:50:22.984Z,1021.22
2019-04-12T05:51:05.069Z,1021.22
2019-04-12T05:51:45.927Z,1021.21
2019-04-12T05:52:26.915Z,1021.22
2019-04-12T05:53:08.057Z,1021.21
2019-04-12T05:53:49.451Z,1021.2
2019-04-12T05:54:30.340Z,1021.24
2019-04-12T05:55:11.006Z,1021.23
2019-04-12T05:55:51.583Z,1021.2
2019-04-12T05:56:32.187Z,1021.3
2019-04-12T05:57:13.070Z,1021.23
2019-04-12T05:57:53.682Z,1021.21
2019-04-12T05:58:34.483Z,1021.22
2019-04-12T05:59:15.130Z,1021.22
2019-04-12T05:59:56.364Z,1021.26
2019-04-12T06:00:37.563Z,1021.2
2019-04-12T06:01:18.846Z,1021.24
2019-04-12T06:01:59.661Z,1021.23
2019-04-12T06:02:40.400Z,1021.19
2019-04-12T06:03:21.097Z,1021.24
2019-04-12T06:04:01.941Z,1021.23
2019-04-12T06:04:42.511Z,1021.21
2019-04-12T06:05:23.243Z,1021.2
2019-04-12T06:06:04.232Z,1021.21
2019-04-12T06:06:45.165Z,1021.24
2019-04-12T06:07:25.995Z,1021.25
2019-04-12T06:08:06.584Z,1021.22
2019-04-12T06:08:47.136Z,1021.25
2019-04-12T06:09:27.691Z,1021.23
2019-04-12T06:10:08.284Z,1021.25
2019-04-12T06:10:48.858Z,1021.25
2019-04-12T06:11:29.410Z,1021.22
2019-04-12T06:12:09.996Z,1021.23
2019-04-12T06:12:50.642Z,1021.22
2019-04-12T06:13:31.919Z,1021.27
2019-04-12T06:14:12.526Z,1021.22
2019-04-12T06:14:53.094Z,1021.23
2019-04-12T06:15:33.854Z,1021.23
2019-04-12T06:16:14.618Z,1021.28
2019-04-12T06:17:01.061Z,1021.29
2019-04-12T06:17:35.779Z,1021.29
2019-04-12T06:18:16.543Z,1021.35
2019-04-12T06:18:57.039Z,1021.24
2019-04-12T06:19:37.735Z,1021.22
2019-04-12T06:20:18.311Z,1021.24
2019-04-12T06:20:58.892Z,1021.24
2019-04-12T06:21:39.480Z,1021.23
2019-04-12T06:22:20.130Z,1021.26
2019-04-12T06:23:00.687Z,1021.23
2019-04-12T06:23:41.231Z,1021.23
2019-04-12T06:24:21.811Z,1021.25
2019-04-12T06:25:02.398Z,1021.24
2019-04-12T06:25:42.947Z,1021.26
2019-04-12T06:26:23.495Z,1021.29
2019-04-12T06:27:09.590Z,1021.25
2019-04-12T06:27:44.616Z,1021.24
2019-04-12T06:28:25.233Z,1021.25
2019-04-12T06:29:09.557Z,1021.26
2019-04-12T06:29:57.419Z,1021.28
2019-04-12T06:30:40.817Z,1021.26
2019-04-12T06:31:33.847Z,1021.24
2019-04-12T06:32:14.999Z,1021.29
2019-04-12T06:32:56.005Z,1021.28
2019-04-12T06:33:37.091Z,1021.32
2019-04-12T06:34:18.330Z,1021.26
2019-04-12T06:34:59.133Z,1021.31
2019-04-12T06:35:39.850Z,1021.3
2019-04-12T06:36:20.617Z,1021.32
2019-04-12T06:37:01.819Z,1021.31
2019-04-12T06:37:42.605Z,1021.31
2019-04-12T06:38:23.309Z,1021.3
2019-04-12T06:39:04.255Z,1021.32
2019-04-12T06:39:45.203Z,1021.3
2019-04-12T06:40:26.233Z,1021.32
2019-04-12T06:41:07.350Z,1021.31
2019-04-12T06:41:48.105Z,1021.3
2019-04-12T06:42:29.725Z,1021.31
2019-04-12T06:43:10.305Z,1021.29
2019-04-12T06:43:50.859Z,1021.26
2019-04-12T06:44:32.613Z,1021.29
2019-04-12T06:45:13.625Z,1021.28
2019-04-12T06:45:54.287Z,1021.28
2019-04-12T06:46:36.378Z,1021.26
2019-04-12T06:47:16.979Z,1021.27
2019-04-12T06:47:57.536Z,1021.29
2019-04-12T06:48:39.402Z,1021.23
2019-04-12T06:49:20.142Z,1021.24
2019-04-12T06:50:00.905Z,1021.25
2019-04-12T06:50:42.298Z,1021.24
2019-04-12T06:51:24.448Z,1021.2
2019-04-12T06:52:06.723Z,1021.25
2019-04-12T06:52:48.059Z,1021.24
2019-04-12T06:53:31.724Z,1021.22
2019-04-12T06:54:16.010Z,1021.22
2019-04-12T06:54:57.994Z,1021.25
2019-04-12T06:55:43.255Z,1021.26
2019-04-12T06:56:24.807Z,1021.2
2019-04-12T06:57:06.968Z,1021.24
2019-04-12T06:57:49.143Z,1021.25
2019-04-12T06:58:31.379Z,1021.18
2019-04-12T06:59:13.779Z,1021.24
2019-04-12T06:59:55.016Z,1021.24
2019-04-12T07:00:36.966Z,1021.23
2019-04-12T07:01:18.707Z,1021.16
2019-04-12T07:01:59.983Z,1021.18
2019-04-12T07:02:41.187Z,1021.22
2019-04-12T07:03:22.471Z,1021.19
2019-04-12T07:04:03.684Z,1021.2
2019-04-12T07:04:44.423Z,1021.2
2019-04-12T07:05:25.006Z,1021.23
2019-04-12T07:06:05.554Z,1021.19
2019-04-12T07:06:46.124Z,1021.16
2019-04-12T07:07:26.679Z,1021.22
2019-04-12T07:08:07.422Z,1021.22
2019-04-12T07:08:48.048Z,1021.17
2019-04-12T07:09:28.660Z,1021.17
2019-04-12T07:10:09.321Z,1021.2
2019-04-12T07:10:49.922Z,1021.21
2019-04-12T07:11:30.626Z,1021.22
2019-04-12T07:12:11.206Z,1021.29
2019-04-12T07:12:51.805Z,1021.26
2019-04-12T07:13:32.515Z,1021.26
2019-04-12T07:14:13.201Z,1021.26
2019-04-12T07:14:53.819Z,1021.3
2019-04-12T07:15:34.520Z,1021.26
2019-04-12T07:16:18.202Z,1021.26
2019-04-12T07:16:58.815Z,1021.21
2019-04-12T07:17:39.374Z,1021.27
2019-04-12T07:18:20.023Z,1021.29
2019-04-12T07:19:00.714Z,1021.23
2019-04-12T07:19:41.271Z,1021.23
2019-04-12T07:20:21.828Z,1021.23
2019-04-12T07:21:02.397Z,1021.23
2019-04-12T07:21:42.961Z,1021.27
2019-04-12T07:22:23.515Z,1021.29
2019-04-12T07:23:04.084Z,1021.26
2019-04-12T07:23:44.640Z,1021.28
2019-04-12T07:24:25.312Z,1021.25
2019-04-12T07:25:05.894Z,1021.23
2019-04-12T07:25:46.450Z,1021.25
2019-04-12T07:26:27.002Z,1021.23
2019-04-12T07:27:07.593Z,1021.29
2019-04-12T07:27:48.146Z,1021.27
2019-04-12T07:28:28.711Z,1021.28
2019-04-12T07:29:09.410Z,1021.25
2019-04-12T07:29:50.000Z,1021.24
2019-04-12T07:30:30.544Z,1021.26
2019-04-12T07:31:11.085Z,1021.22
2019-04-12T07:31:51.682Z,1021.26
2019-04-12T07:32:32.281Z,1021.24
2019-04-12T07:33:13.027Z,1021.24
2019-04-12T07:33:53.622Z,1021.25
2019-04-12T07:34:34.169Z,1021.25
2019-04-12T07:35:14.736Z,1021.25
2019-04-12T07:35:55.354Z,1021.27
2019-04-12T07:36:35.904Z,1021.18
2019-04-12T07:37:16.511Z,1021.24
2019-04-12T07:37:57.125Z,1021.22
2019-04-12T07:38:37.740Z,1021.21
2019-04-12T07:39:18.302Z,1021.21
2019-04-12T07:39:58.911Z,1021.2
2019-04-12T07:40:39.538Z,1021.24
2019-04-12T07:41:20.104Z,1021.23
2019-04-12T07:42:00.692Z,1021.22
2019-04-12T07:42:41.269Z,1021.21
2019-04-12T07:43:21.842Z,1021.16
2019-04-12T07:44:02.391Z,1021.17
2019-04-12T07:44:43.044Z,1021.2
2019-04-12T07:45:23.756Z,1021.21
2019-04-12T07:46:04.283Z,1021.17
2019-04-12T07:46:44.915Z,1021.22
2019-04-12T07:47:25.611Z,1021.2
2019-04-12T07:48:06.207Z,1021.21
2019-04-12T07:48:46.847Z,1021.14
2019-04-12T07:49:27.399Z,1021.15
2019-04-12T07:50:08.029Z,1021.13
2019-04-12T07:50:48.677Z,1021.13
2019-04-12T07:51:29.243Z,1021.18
2019-04-12T07:52:09.805Z,1021.15
2019-04-12T07:52:50.366Z,1021.17
2019-04-12T07:53:31.300Z,1021.19
2019-04-12T07:54:12.666Z,1021.18
2019-04-12T07:54:53.600Z,1021.2
2019-04-12T07:55:34.161Z,1021.23
2019-04-12T07:56:14.717Z,1021.18
2019-04-12T07:56:56.595Z,1021.24
2019-04-12T07:57:46.305Z,1021.29
2019-04-12T07:58:17.987Z,1021.25
2019-04-12T07:58:59.047Z,1021.25
2019-04-12T07:59:39.998Z,1021.31
2019-04-12T08:00:21.120Z,1021.31
2019-04-12T08:01:02.611Z,1021.32
2019-04-12T08:01:43.115Z,1021.33
2019-04-12T08:02:24.035Z,1021.36
2019-04-12T08:03:05.277Z,1021.31
2019-04-12T08:03:46.440Z,1021.31
2019-04-12T08:04:27.410Z,1021.3
2019-04-12T08:05:08.004Z,1021.3
2019-04-12T08:05:48.880Z,1021.37
2019-04-12T08:06:30.091Z,1021.32
2019-04-12T08:07:10.752Z,1021.34
2019-04-12T08:07:51.606Z,1021.35
2019-04-12T08:08:32.898Z,1021.36
2019-04-12T08:09:15.430Z,1021.34
2019-04-12T08:09:57.635Z,1021.3
2019-04-12T08:10:40.451Z,1021.31
2019-04-12T08:11:21.881Z,1021.32
2019-04-12T08:12:04.370Z,1021.31
2019-04-12T08:12:45.959Z,1021.32
2019-04-12T08:13:28.500Z,1021.34
2019-04-12T08:14:11.144Z,1021.35
2019-04-12T08:14:52.767Z,1021.32
2019-04-12T08:15:34.183Z,1021.37